createdAt,value
2023-04-15T00:00:04.151Z,86.22
2023-04-15T00:03:28.888Z,85.45
2023-04-15T00:06:53.151Z,84.97
2023-04-15T00:10:17.206Z,84.35
2023-04-15T00:13:39.581Z,83.71
2023-04-15T00:17:01.423Z,83.71
2023-04-15T00:20:25.539Z,85.02
2023-04-15T00:23:52.604Z,85.10
2023-04-15T00:27:14.412Z,85.86
2023-04-15T00:30:38.181Z,86.58
2023-04-15T00:34:00.540Z,85.82
2023-04-15T00:37:22.700Z,85.96
2023-04-15T00:40:44.525Z,85.75
2023-04-15T00:44:07.293Z,86.38
2023-04-15T00:47:29.953Z,86.92
2023-04-15T00:50:52.021Z,87.21
2023-04-15T00:54:16.313Z,87.23
2023-04-15T00:57:45.062Z,86.14
2023-04-15T01:01:06.674Z,86.22
2023-04-15T01:04:30.890Z,85.81
2023-04-15T01:07:53.074Z,86.39
2023-04-15T01:11:15.777Z,87.16
2023-04-15T01:14:39.721Z,87.14
2023-04-15T01:18:03.211Z,87.34
2023-04-15T01:21:25.269Z,87.26
2023-04-15T01:24:57.132Z,87.51
2023-04-15T01:28:18.872Z,87.09
2023-04-15T01:31:40.598Z,87.98
2023-04-15T01:35:04.942Z,87.92
2023-04-15T01:38:33.330Z,87.76
2023-04-15T01:41:54.889Z,88.12
2023-04-15T01:45:16.772Z,87.61
2023-04-15T01:48:41.384Z,87.67
2023-04-15T01:52:03.051Z,86.84
2023-04-15T01:55:24.614Z,86.34
2023-04-15T01:58:48.497Z,86.90
2023-04-15T02:02:12.656Z,87.22
2023-04-15T02:05:39.149Z,85.67
2023-04-15T02:09:04.345Z,86.60
2023-04-15T02:12:28.221Z,86.55
2023-04-15T02:15:52.433Z,86.29
2023-04-15T02:19:16.319Z,85.72
2023-04-15T02:22:37.880Z,85.78
2023-04-15T02:26:00.063Z,86.02
2023-04-15T02:29:22.949Z,85.63
2023-04-15T02:32:45.302Z,86.57
2023-04-15T02:36:08.366Z,87.25
2023-04-15T02:39:35.297Z,87.56
2023-04-15T02:43:00.388Z,86.56
2023-04-15T02:46:24.176Z,85.14
2023-04-15T02:49:48.378Z,86.19
2023-04-15T02:53:14.629Z,86.47
2023-04-15T02:56:38.821Z,87.01
2023-04-15T03:00:05.979Z,87.27
2023-04-15T03:03:28.694Z,88.02
2023-04-15T03:06:50.692Z,87.65
2023-04-15T03:10:15.557Z,85.90
2023-04-15T03:13:41.835Z,86.07
2023-04-15T03:17:03.496Z,85.15
2023-04-15T03:20:25.127Z,85.80
2023-04-15T03:23:49.847Z,85.77
2023-04-15T03:27:11.444Z,86.65
2023-04-15T03:30:33.112Z,85.89
2023-04-15T03:33:54.714Z,86.40
2023-04-15T03:37:16.528Z,86.00
2023-04-15T03:40:39.424Z,85.47
2023-04-15T03:44:03.554Z,85.13
2023-04-15T03:47:25.166Z,84.65
2023-04-15T03:50:49.322Z,85.03
2023-04-15T03:54:15.322Z,84.51
2023-04-15T03:57:39.081Z,85.51
2023-04-15T04:01:01.082Z,86.19
2023-04-15T04:04:28.211Z,86.12
2023-04-15T04:07:50.166Z,87.10
2023-04-15T04:11:11.821Z,86.67
2023-04-15T04:14:35.699Z,87.64
2023-04-15T04:17:57.323Z,87.93
2023-04-15T04:21:21.733Z,88.16
2023-04-15T04:24:43.347Z,88.71
2023-04-15T04:28:07.411Z,87.57
2023-04-15T04:31:31.709Z,86.75
2023-04-15T04:34:53.369Z,86.86
2023-04-15T04:38:14.948Z,86.14
2023-04-15T04:41:41.784Z,86.56
2023-04-15T04:45:03.567Z,85.45
2023-04-15T04:48:25.193Z,85.09
2023-04-15T04:51:49.746Z,85.42
2023-04-15T04:55:11.688Z,84.92
2023-04-15T04:58:33.263Z,83.50
2023-04-15T05:01:57.263Z,84.42
2023-04-15T05:05:21.508Z,84.41
2023-04-15T05:08:43.467Z,84.35
2023-04-15T05:12:05.436Z,84.86
2023-04-15T05:15:27.080Z,85.09
2023-04-15T05:18:53.713Z,85.33
2023-04-15T05:22:15.584Z,85.65
2023-04-15T05:25:37.249Z,84.90
2023-04-15T05:28:58.994Z,85.34
2023-04-15T05:32:20.855Z,85.08
2023-04-15T05:35:45.439Z,83.98
2023-04-15T05:39:07.180Z,82.39
2023-04-15T05:42:30.945Z,82.24
2023-04-15T05:45:57.139Z,82.38
2023-04-15T05:49:21.212Z,81.38
2023-04-15T05:52:46.111Z,81.49
2023-04-15T05:56:08.108Z,81.02
2023-04-15T05:59:34.731Z,82.20
2023-04-15T06:03:02.146Z,83.44
2023-04-15T06:06:24.294Z,83.10
2023-04-15T06:09:46.023Z,83.96
2023-04-15T06:13:08.054Z,82.81
2023-04-15T06:16:29.648Z,83.15
2023-04-15T06:19:56.521Z,82.78
2023-04-15T06:23:22.578Z,82.26
2023-04-15T06:26:44.217Z,82.18
2023-04-15T06:30:09.238Z,82.27
2023-04-15T06:33:31.784Z,82.54
2023-04-15T06:36:57.906Z,82.62
2023-04-15T06:40:24.775Z,82.15
2023-04-15T06:43:46.733Z,81.54
2023-04-15T06:47:09.205Z,80.69
2023-04-15T06:50:30.894Z,80.69
2023-04-15T06:53:55.064Z,79.58
2023-04-15T06:57:16.678Z,80.16
2023-04-15T07:00:39.330Z,79.78
2023-04-15T07:04:01.372Z,79.14
2023-04-15T07:07:22.922Z,79.73
2023-04-15T07:10:44.632Z,80.51
2023-04-15T07:14:06.864Z,79.19
2023-04-15T07:17:28.512Z,77.42
2023-04-15T07:20:50.098Z,76.60
2023-04-15T07:24:16.948Z,74.80
2023-04-15T07:27:38.536Z,75.24
2023-04-15T07:31:00.269Z,74.90
2023-04-15T07:34:24.643Z,73.24
2023-04-15T07:37:48.734Z,70.75
2023-04-15T07:41:10.661Z,69.13
2023-04-15T07:44:34.792Z,68.07
2023-04-15T07:47:56.812Z,67.76
2023-04-15T07:51:23.720Z,65.77
2023-04-15T07:54:45.655Z,65.58
2023-04-15T07:58:07.269Z,64.58
2023-04-15T08:01:31.593Z,64.59
2023-04-15T08:04:54.116Z,65.98
2023-04-15T08:08:15.755Z,64.41
2023-04-15T08:11:40.363Z,65.37
2023-04-15T08:15:04.629Z,62.65
2023-04-15T08:18:30.945Z,63.60
2023-04-15T08:21:52.574Z,63.67
2023-04-15T08:25:16.677Z,63.96
2023-04-15T08:28:40.215Z,62.14
2023-04-15T08:32:02.138Z,61.08
2023-04-15T08:35:23.720Z,60.84
2023-04-15T08:38:45.697Z,62.54
2023-04-15T08:42:16.495Z,63.04
2023-04-15T08:45:40.220Z,62.53
2023-04-15T08:49:05.149Z,64.35
2023-04-15T08:52:27.333Z,66.09
2023-04-15T08:55:52.444Z,64.80
2023-04-15T08:59:16.546Z,62.66
2023-04-15T09:02:39.308Z,64.25
2023-04-15T09:06:04.145Z,64.27
2023-04-15T09:09:27.954Z,63.58
2023-04-15T09:12:49.806Z,63.66
2023-04-15T09:16:13.785Z,63.33
2023-04-15T09:19:35.542Z,64.59
2023-04-15T09:22:59.339Z,63.98
2023-04-15T09:26:40.458Z,63.87
2023-04-15T09:30:11.174Z,62.08
2023-04-15T09:33:32.868Z,62.05
2023-04-15T09:36:56.939Z,63.02
2023-04-15T09:40:36.088Z,62.06
2023-04-15T09:43:57.799Z,63.74
2023-04-15T09:47:34.584Z,64.26
2023-04-15T09:50:58.696Z,63.70
2023-04-15T09:54:26.611Z,63.38
2023-04-15T09:57:50.554Z,62.85
2023-04-15T10:01:12.447Z,62.56
2023-04-15T10:04:37.429Z,62.93
2023-04-15T10:07:59.391Z,61.73
2023-04-15T10:11:25.135Z,60.34
2023-04-15T10:14:56.870Z,61.47
2023-04-15T10:18:21.751Z,62.19
2023-04-15T10:21:46.326Z,62.92
2023-04-15T10:25:11.074Z,62.40
2023-04-15T10:28:32.696Z,63.41
2023-04-15T10:31:58.550Z,63.92
2023-04-15T10:35:22.460Z,64.31
2023-04-15T10:38:48.331Z,63.72
2023-04-15T10:42:16.892Z,63.61
2023-04-15T10:45:38.376Z,63.76
2023-04-15T10:49:08.317Z,64.93
2023-04-15T10:52:29.918Z,65.14
2023-04-15T10:55:56.513Z,64.45
2023-04-15T10:59:18.118Z,63.73
2023-04-15T11:02:59.096Z,65.30
2023-04-15T11:06:20.837Z,63.64
2023-04-15T11:09:42.400Z,65.90
2023-04-15T11:13:14.968Z,67.48
2023-04-15T11:16:45.540Z,69.21
2023-04-15T11:20:09.100Z,69.91
2023-04-15T11:23:35.458Z,69.21
2023-04-15T11:27:02.341Z,68.84
2023-04-15T11:30:35.060Z,69.51
2023-04-15T11:33:59.449Z,68.85
2023-04-15T11:37:32.312Z,67.73
2023-04-15T11:40:56.279Z,66.22
2023-04-15T11:44:22.851Z,66.42
2023-04-15T11:47:44.466Z,64.86
2023-04-15T11:51:07.813Z,65.86
2023-04-15T11:54:29.405Z,66.14
2023-04-15T11:58:26.698Z,65.06
2023-04-15T12:01:52.447Z,64.80
2023-04-15T12:05:14.155Z,64.29
2023-04-15T12:09:09.810Z,64.90
2023-04-15T12:12:31.509Z,65.56
2023-04-15T12:15:55.861Z,66.62
2023-04-15T12:19:46.089Z,65.52
2023-04-15T12:23:10.599Z,65.86
2023-04-15T12:26:43.650Z,65.97
2023-04-15T12:30:05.994Z,66.49
2023-04-15T12:33:36.230Z,66.77
2023-04-15T12:36:59.458Z,66.29
2023-04-15T12:40:21.146Z,68.03
2023-04-15T12:43:48.031Z,67.52
2023-04-15T12:47:10.987Z,67.07
2023-04-15T12:50:32.602Z,67.66
2023-04-15T12:53:54.611Z,67.98
2023-04-15T12:57:18.389Z,66.81
2023-04-15T13:00:40.182Z,67.43
2023-04-15T13:04:02.309Z,67.19
2023-04-15T13:07:27.024Z,66.43
2023-04-15T13:10:48.609Z,66.49
2023-04-15T13:14:13.694Z,66.68
2023-04-15T13:17:38.852Z,67.06
2023-04-15T13:21:01.308Z,67.42
2023-04-15T13:24:22.835Z,67.06
2023-04-15T13:27:44.583Z,67.38
2023-04-15T13:31:08.948Z,66.49
2023-04-15T13:34:33.509Z,66.97
2023-04-15T13:37:59.808Z,66.56
2023-04-15T13:41:21.467Z,67.37
2023-04-15T13:44:43.090Z,67.38
2023-04-15T13:48:04.821Z,67.81
2023-04-15T13:51:28.948Z,67.29
2023-04-15T13:55:07.294Z,67.08
2023-04-15T13:58:40.467Z,67.88
2023-04-15T14:02:04.612Z,68.53
2023-04-15T14:05:26.416Z,69.16
2023-04-15T14:08:50.423Z,69.71
2023-04-15T14:12:14.857Z,69.77
2023-04-15T14:15:36.497Z,69.03
2023-04-15T14:19:01.076Z,69.26
2023-04-15T14:22:22.689Z,69.48
2023-04-15T14:25:48.391Z,68.68
2023-04-15T14:29:10.480Z,69.33
2023-04-15T14:32:32.087Z,69.51
2023-04-15T14:35:53.750Z,70.01
2023-04-15T14:39:15.337Z,70.22
2023-04-15T14:42:36.974Z,70.82
2023-04-15T14:45:58.582Z,70.11
2023-04-15T14:49:22.917Z,70.38
2023-04-15T14:52:44.508Z,70.36
2023-04-15T14:56:09.401Z,70.31
2023-04-15T14:59:31.008Z,70.54
2023-04-15T15:02:54.899Z,69.59
2023-04-15T15:06:18.753Z,68.70
2023-04-15T15:09:40.464Z,65.98
2023-04-15T15:13:06.274Z,66.14
2023-04-15T15:16:30.370Z,66.66
2023-04-15T15:19:57.474Z,66.75
2023-04-15T15:23:19.135Z,70.26
2023-04-15T15:26:42.810Z,67.01
2023-04-15T15:30:04.627Z,68.76
2023-04-15T15:33:27.168Z,69.10
2023-04-15T15:36:49.686Z,65.12
2023-04-15T15:40:12.170Z,68.98
2023-04-15T15:43:33.968Z,66.71
2023-04-15T15:46:58.689Z,66.02
2023-04-15T15:50:22.964Z,66.40
2023-04-15T15:53:44.894Z,67.41
2023-04-15T15:57:09.324Z,67.73
2023-04-15T16:00:31.025Z,69.20
2023-04-15T16:03:55.041Z,69.56
2023-04-15T16:07:16.840Z,69.72
2023-04-15T16:10:43.100Z,69.99
2023-04-15T16:14:07.195Z,70.35
2023-04-15T16:17:28.798Z,70.75
2023-04-15T16:20:55.364Z,71.00
2023-04-15T16:24:17.269Z,71.37
2023-04-15T16:31:03.647Z,71.92
2023-04-15T16:34:25.243Z,72.05
2023-04-15T16:37:49.303Z,72.11
2023-04-15T16:41:11.082Z,72.86
2023-04-15T16:44:34.931Z,72.69
2023-04-15T16:47:58.798Z,72.97
2023-04-15T16:51:25.904Z,73.65
2023-04-15T16:54:49.855Z,74.58
2023-04-15T16:58:12.212Z,74.96
2023-04-15T17:01:33.895Z,75.29
2023-04-15T17:04:57.784Z,77.09
2023-04-15T17:08:19.350Z,80.91
2023-04-15T17:11:41.063Z,79.99
2023-04-15T17:15:03.168Z,79.03
2023-04-15T17:18:27.004Z,78.36
2023-04-15T17:21:48.561Z,77.41
2023-04-15T17:25:10.354Z,74.58
2023-04-15T17:28:34.100Z,74.31
2023-04-15T17:32:00.658Z,74.84
2023-04-15T17:35:23.425Z,76.19
2023-04-15T17:38:45.724Z,76.10
2023-04-15T17:42:07.278Z,80.54
2023-04-15T17:45:31.521Z,79.91
2023-04-15T17:48:53.108Z,81.10
2023-04-15T17:52:17.030Z,80.91
2023-04-15T17:55:43.296Z,79.98
2023-04-15T17:59:07.660Z,79.20
2023-04-15T18:02:32.694Z,78.12
2023-04-15T18:05:55.999Z,74.71
2023-04-15T18:09:17.574Z,75.63
2023-04-15T18:12:39.588Z,76.50
2023-04-15T18:16:01.184Z,77.02
2023-04-15T18:19:25.786Z,77.53
2023-04-15T18:22:47.443Z,78.88
2023-04-15T18:26:11.661Z,80.15
2023-04-15T18:29:34.512Z,80.67
2023-04-15T18:32:58.492Z,81.02
2023-04-15T18:36:22.421Z,80.19
2023-04-15T18:39:44.025Z,80.11
2023-04-15T18:43:05.715Z,79.44
2023-04-15T18:46:28.262Z,79.63
2023-04-15T18:49:49.831Z,86.51
2023-04-15T18:53:11.494Z,86.05
2023-04-15T18:56:35.306Z,84.65
2023-04-15T18:59:57.366Z,83.92
2023-04-15T19:03:23.551Z,83.03
2023-04-15T19:06:45.403Z,82.42
2023-04-15T19:10:07.938Z,78.24
2023-04-15T19:13:29.733Z,77.70
2023-04-15T19:16:53.716Z,78.96
2023-04-15T19:20:17.724Z,79.63
2023-04-15T19:23:39.733Z,80.36
2023-04-15T19:27:03.664Z,80.83
2023-04-15T19:30:32.339Z,80.24
2023-04-15T19:33:53.975Z,79.72
2023-04-15T19:37:17.760Z,79.99
2023-04-15T19:40:42.203Z,79.73
2023-04-15T19:44:06.756Z,86.09
2023-04-15T19:47:28.615Z,87.24
2023-04-15T19:50:52.384Z,85.80
2023-04-15T19:54:13.964Z,85.18
2023-04-15T19:57:35.606Z,83.99
2023-04-15T20:00:57.528Z,79.10
2023-04-15T20:04:19.258Z,79.24
2023-04-15T20:07:45.206Z,79.80
2023-04-15T20:11:09.770Z,80.20
2023-04-15T20:14:31.372Z,79.93
2023-04-15T20:17:53.063Z,81.70
2023-04-15T20:21:14.704Z,82.53
2023-04-15T20:24:36.330Z,82.14
2023-04-15T20:28:01.224Z,82.44
2023-04-15T20:31:22.982Z,82.73
2023-04-15T20:34:44.831Z,83.43
2023-04-15T20:38:06.483Z,83.32
2023-04-15T20:41:32.592Z,83.07
2023-04-15T20:44:54.530Z,82.55
2023-04-15T20:48:16.198Z,81.78
2023-04-15T20:51:38.048Z,81.92
2023-04-15T20:54:59.751Z,81.40
2023-04-15T20:58:21.482Z,81.30
2023-04-15T21:01:43.520Z,81.50
2023-04-15T21:05:05.824Z,82.30
2023-04-15T21:08:29.720Z,83.86
2023-04-15T21:15:16.130Z,82.84
2023-04-15T21:18:37.736Z,82.70
2023-04-15T21:21:59.714Z,82.05
2023-04-15T21:25:23.483Z,83.47
2023-04-15T21:28:45.443Z,83.18
2023-04-15T21:32:07.253Z,83.12
2023-04-15T21:35:30.327Z,83.34
2023-04-15T21:38:51.976Z,83.53
2023-04-15T21:42:15.861Z,84.23
2023-04-15T21:45:42.986Z,84.06
2023-04-15T21:49:26.761Z,82.99
2023-04-15T21:52:48.312Z,83.19
2023-04-15T21:56:10.106Z,83.47
2023-04-15T21:59:31.702Z,83.47
2023-04-15T22:02:56.102Z,83.02
2023-04-15T22:06:20.106Z,83.20
2023-04-15T22:09:44.403Z,83.52
2023-04-15T22:13:10.984Z,84.45
2023-04-15T22:16:37.244Z,85.15
2023-04-15T22:19:58.841Z,86.10
2023-04-15T22:23:22.675Z,85.40
2023-04-15T22:26:46.543Z,84.59
2023-04-15T22:30:08.814Z,85.45
2023-04-15T22:33:30.394Z,85.47
2023-04-15T22:36:54.545Z,85.58
2023-04-15T22:40:16.509Z,85.81
2023-04-15T22:43:38.179Z,86.61
2023-04-15T22:47:02.291Z,86.75
2023-04-15T22:50:23.954Z,86.84
2023-04-15T22:53:47.769Z,86.92
2023-04-15T22:57:09.453Z,86.05
2023-04-15T23:00:31.109Z,86.09
2023-04-15T23:03:56.265Z,85.27
2023-04-15T23:07:28.196Z,84.66
2023-04-15T23:10:50.730Z,85.05
2023-04-15T23:14:15.013Z,85.81
2023-04-15T23:17:41.198Z,86.17
2023-04-15T23:21:05.498Z,86.34
2023-04-15T23:24:27.125Z,86.55
2023-04-15T23:27:48.673Z,86.71
2023-04-15T23:31:11.486Z,86.93
2023-04-15T23:34:35.142Z,86.28
2023-04-15T23:37:59.063Z,86.28
2023-04-15T23:41:22.113Z,86.25
2023-04-15T23:44:43.718Z,86.07
2023-04-15T23:48:06.259Z,85.57
2023-04-15T23:51:30.062Z,84.72
2023-04-15T23:54:53.900Z,85.92
2023-04-15T23:58:15.636Z,86.67
